Terminal Aerodrome Forecast
Issued by NWS

Home | Current Version | Previous Version | Text Only | Print | Product List | Glossary On
Versions: 1 2 3 4 5 6 7 8 9 10 11 12 13 14 15 16 17 18 19 20 21
277
FTUS43 KDLH 231743
TAFHIB
TAF
KHIB 231743Z 2318/2418 23003KT P6SM SCT120
     FM240200 18008KT P6SM BKN100 WS020/22035KT
     FM241000 20008KT P6SM VCSH BKN100 WS020/25040KT
     FM241300 23007KT 4SM -SHRA BKN025 WS020/27035KT
     FM241600 25009KT 3SM -SHRA OVC008 WS020/28035KT=

USA.gov is the U.S. government's official web portal to all federal, state and local government web resources and services.